Time;durP1;ratioP1;P1;durP2;ratioP2;P2;SDS_P1;SDS_P2;PMS_P1;PMS_P2;Temp;Humidity;BMP_temperature;BMP_pressure;BME280_temperature;BME280_humidity;BME280_pressure;Samples;Min_cycle;Max_cycle;Signal;HPM_P1;HPM_P2
2021/07/12 00:00:21;;;;;;;0.60;0.60;;;;;;;15.00;74.65;96333.34;5072477;28;20405;-75
2021/07/12 00:02:48;;;;;;;0.80;0.80;;;;;;;14.97;74.65;96328.56;5076958;28;20483;-75
2021/07/12 00:05:14;;;;;;;0.50;0.50;;;;;;;14.95;74.72;96330.66;5076540;28;20484;-75
2021/07/12 00:07:41;;;;;;;0.52;0.50;;;;;;;14.93;74.80;96319.53;5076702;28;20484;-75
2021/07/12 00:10:10;;;;;;;0.60;0.60;;;;;;;14.89;74.89;96319.25;5075994;28;20052;-75
2021/07/12 00:12:36;;;;;;;0.57;0.57;;;;;;;14.87;75.03;96315.28;5077128;28;20035;-75
2021/07/12 00:15:05;;;;;;;0.75;0.60;;;;;;;14.84;75.10;96311.25;5075516;28;20064;-75
2021/07/12 00:17:31;;;;;;;0.55;0.55;;;;;;;14.84;75.15;96310.47;5076443;28;20361;-75
2021/07/12 00:19:57;;;;;;;0.43;0.43;;;;;;;14.81;75.34;96312.56;5076344;28;20492;-75
2021/07/12 00:22:23;;;;;;;0.60;0.60;;;;;;;14.80;75.41;96307.53;5076199;28;20059;-75
2021/07/12 00:24:49;;;;;;;0.80;0.80;;;;;;;14.78;75.52;96301.69;5076264;28;20104;-76
2021/07/12 00:27:15;;;;;;;0.75;0.75;;;;;;;14.74;75.62;96292.69;5074649;28;20401;-75
2021/07/12 00:29:42;;;;;;;0.85;0.80;;;;;;;14.74;75.71;96292.69;5076150;28;20469;-75
2021/07/12 00:32:08;;;;;;;0.82;0.73;;;;;;;14.72;75.80;96292.94;5076656;28;20491;-74
2021/07/12 00:34:34;;;;;;;1.33;0.60;;;;;;;14.71;75.87;96290.53;5076019;28;20369;-74
2021/07/12 00:37:00;;;;;;;0.68;0.50;;;;;;;14.69;75.84;96285.50;5075474;28;20048;-74
2021/07/12 00:39:26;;;;;;;0.82;0.82;;;;;;;14.66;75.88;96288.66;5074831;28;20040;-74
2021/07/12 00:41:58;;;;;;;0.50;0.50;;;;;;;14.64;75.95;96300.50;5075050;28;20048;-75
2021/07/12 00:44:26;;;;;;;0.93;0.70;;;;;;;14.60;76.04;96300.97;5076291;28;20037;-75
2021/07/12 00:46:54;;;;;;;1.27;0.80;;;;;;;14.56;76.05;96284.03;5076149;28;20056;-75
2021/07/12 00:49:20;;;;;;;0.70;0.50;;;;;;;14.54;76.21;96283.47;5076132;28;20044;-75
2021/07/12 00:51:46;;;;;;;0.68;0.68;;;;;;;14.53;76.39;96281.06;5074993;28;20052;-75
2021/07/12 00:54:13;;;;;;;0.60;0.60;;;;;;;14.51;76.41;96276.06;5073962;28;20430;-75
2021/07/12 00:56:39;;;;;;;0.65;0.65;;;;;;;14.49;76.48;96277.31;5075755;28;20051;-75
2021/07/12 00:59:05;;;;;;;1.05;0.60;;;;;;;14.48;76.56;96267.81;5075583;28;20035;-75
2021/07/12 01:01:31;;;;;;;1.63;0.65;;;;;;;14.44;76.68;96264.88;5075447;28;20079;-75
2021/07/12 01:03:58;;;;;;;0.60;0.60;;;;;;;14.43;76.71;96262.50;5075249;28;20409;-75
2021/07/12 01:06:24;;;;;;;2.38;0.80;;;;;;;14.41;76.86;96268.81;5075496;28;20035;-75
2021/07/12 01:08:51;;;;;;;0.80;0.80;;;;;;;14.39;76.97;96273.53;5074613;28;20040;-75
2021/07/12 01:11:35;;;;;;;1.67;0.82;;;;;;;14.37;77.39;96264.28;5074650;28;20048;-78
2021/07/12 01:14:07;;;;;;;;;;;;;;;14.33;77.81;96263.16;5073540;28;20039;-75
2021/07/12 01:16:44;;;;;;;0.60;0.60;;;;;;;14.28;77.19;96252.53;5075853;28;19912;-74
2021/07/12 01:19:53;;;;;;;0.70;0.70;;;;;;;14.29;77.88;96257.59;5075169;28;20477;-74
2021/07/12 01:22:31;;;;;;;0.65;0.65;;;;;;;14.26;77.44;96250.19;5075162;28;20028;-74
2021/07/12 01:25:19;;;;;;;0.70;0.70;;;;;;;14.26;78.02;96255.44;5074918;28;20047;-76
2021/07/12 01:28:09;;;;;;;0.60;0.60;;;;;;;14.24;78.04;96254.91;5075001;28;20033;-74
2021/07/12 01:30:53;;;;;;;0.70;0.70;;;;;;;14.23;78.35;96249.84;5074770;28;20040;-75
2021/07/12 01:33:46;;;;;;;0.57;0.57;;;;;;;14.17;78.20;96251.63;5074959;28;20035;-76
2021/07/12 01:36:51;;;;;;;0.85;0.82;;;;;;;14.16;79.11;96245.56;5074218;28;20056;-74
2021/07/12 01:39:21;;;;;;;;;;;;;;;14.12;78.62;96244.47;5040859;28;20040;-74
2021/07/12 01:42:01;;;;;;;1.05;0.70;;;;;;;14.10;78.81;96240.47;5074513;28;19912;-74
2021/07/12 01:44:58;;;;;;;0.70;0.65;;;;;;;14.07;78.73;96247.03;5074743;28;20033;-75
2021/07/12 01:48:00;;;;;;;0.70;0.70;;;;;;;14.06;78.32;96250.72;5074417;28;20044;-76
2021/07/12 01:50:54;;;;;;;2.15;0.75;;;;;;;14.04;78.26;96244.88;5075056;28;20047;-74
2021/07/12 01:53:34;;;;;;;0.85;0.85;;;;;;;14.01;78.31;96245.38;5065829;28;20045;-75
2021/07/12 01:56:08;;;;;;;0.68;0.68;;;;;;;13.99;78.21;96250.88;5074861;28;20064;-74
2021/07/12 01:58:46;;;;;;;0.70;0.70;;;;;;;13.98;78.30;96251.13;5059242;28;20043;-74
2021/07/12 02:01:14;;;;;;;0.68;0.68;;;;;;;13.95;78.29;96255.06;5074381;28;20040;-75
2021/07/12 02:03:42;;;;;;;0.60;0.60;;;;;;;13.95;78.17;96249.78;5074308;28;20036;-74
2021/07/12 02:06:10;;;;;;;0.50;0.50;;;;;;;13.93;78.25;96245.81;5074206;28;20037;-74
2021/07/12 02:08:46;;;;;;;0.60;0.60;;;;;;;13.91;78.44;96242.59;5073430;28;20059;-74
2021/07/12 02:11:16;;;;;;;1.38;0.50;;;;;;;13.88;78.39;96238.63;5074250;28;20053;-74
2021/07/12 02:13:48;;;;;;;0.60;0.60;;;;;;;13.87;78.26;96246.78;5073329;28;20044;-75
2021/07/12 02:16:16;;;;;;;0.77;0.70;;;;;;;13.85;78.21;96254.91;5073738;28;20032;-75
2021/07/12 02:18:44;;;;;;;0.80;0.80;;;;;;;13.85;78.42;96262.03;5073398;28;20044;-75
2021/07/12 02:21:11;;;;;;;0.80;0.80;;;;;;;13.83;78.45;96256.22;5074073;28;20028;-75
2021/07/12 02:23:41;;;;;;;0.70;0.70;;;;;;;13.81;78.84;96251.97;5073530;28;20463;-74
2021/07/12 02:26:13;;;;;;;0.70;0.70;;;;;;;13.77;78.88;96240.34;5072815;28;20469;-74
2021/07/12 02:28:44;;;;;;;0.80;0.80;;;;;;;13.73;78.73;96247.13;5073876;28;20369;-74
2021/07/12 02:31:12;;;;;;;0.73;0.70;;;;;;;13.73;79.00;96238.41;5074215;28;20420;-74
2021/07/12 02:33:41;;;;;;;0.70;0.70;;;;;;;13.71;78.86;96243.94;5073836;28;20484;-74
2021/07/12 02:36:08;;;;;;;0.70;0.70;;;;;;;13.71;78.99;96237.84;5073737;28;20036;-75
2021/07/12 02:38:37;;;;;;;0.80;0.80;;;;;;;13.70;79.11;96228.38;5073829;28;20037;-75
2021/07/12 02:41:04;;;;;;;0.82;0.82;;;;;;;13.69;79.04;96221.47;5073204;28;20195;-75
2021/07/12 02:43:33;;;;;;;0.73;0.73;;;;;;;13.68;79.21;96225.16;5073589;28;20350;-74
2021/07/12 02:46:01;;;;;;;0.77;0.77;;;;;;;13.67;79.02;96237.56;5073390;28;20397;-75
2021/07/12 02:48:28;;;;;;;1.38;0.73;;;;;;;13.67;79.07;96234.09;5073485;28;20036;-74
2021/07/12 02:50:55;;;;;;;0.60;0.60;;;;;;;13.65;79.20;96234.38;5073879;28;20064;-74
2021/07/12 02:53:27;;;;;;;0.60;0.60;;;;;;;13.65;79.33;96244.09;5073473;28;20043;-76
2021/07/12 02:55:53;;;;;;;1.02;0.90;;;;;;;13.61;79.36;96241.16;5073364;28;20043;-75
2021/07/12 02:58:19;;;;;;;0.93;0.70;;;;;;;13.58;79.37;96231.88;5073367;28;20037;-74
2021/07/12 03:00:46;;;;;;;0.68;0.68;;;;;;;13.57;79.41;96225.03;5073697;28;20028;-74
2021/07/12 03:03:12;;;;;;;0.60;0.60;;;;;;;13.56;79.49;96231.31;5071450;28;20401;-74
2021/07/12 03:05:39;;;;;;;0.90;0.90;;;;;;;13.53;79.49;96226.53;5073200;28;20045;-75
2021/07/12 03:08:12;;;;;;;1.00;0.95;;;;;;;13.52;79.71;96218.88;5072605;28;20051;-74
2021/07/12 03:10:43;;;;;;;1.35;0.70;;;;;;;13.49;79.60;96222.00;5073342;28;20020;-74
2021/07/12 03:13:14;;;;;;;0.80;0.80;;;;;;;13.48;79.75;96223.84;5073384;28;20033;-75
2021/07/12 03:15:42;;;;;;;1.30;0.80;;;;;;;13.47;79.90;96219.59;5059743;28;20039;-74
2021/07/12 03:18:30;;;;;;;0.73;0.73;;;;;;;13.44;80.38;96214.84;5073076;28;20047;-74
2021/07/12 03:21:01;;;;;;;0.82;0.50;;;;;;;13.43;79.86;96220.34;5072976;28;20384;-74
2021/07/12 03:23:32;;;;;;;0.80;0.80;;;;;;;13.40;79.78;96224.25;5073493;28;20037;-74
2021/07/12 03:26:02;;;;;;;0.68;0.68;;;;;;;13.38;79.72;96213.16;5072331;28;20044;-75
2021/07/12 03:28:28;;;;;;;0.68;0.68;;;;;;;13.37;79.67;96216.81;5073195;28;20040;-74
2021/07/12 03:30:54;;;;;;;0.75;0.60;;;;;;;13.35;79.69;96209.16;5072409;28;20053;-75
2021/07/12 03:33:22;;;;;;;0.70;0.70;;;;;;;13.35;79.71;96213.63;5072991;28;20380;-75
2021/07/12 03:35:51;;;;;;;1.35;0.80;;;;;;;13.35;79.58;96208.38;5073998;28;20033;-76
2021/07/12 03:38:20;;;;;;;0.93;0.80;;;;;;;13.33;79.88;96205.16;5068606;28;20055;-74
2021/07/12 03:40:47;;;;;;;0.68;0.68;;;;;;;13.29;79.70;96199.59;5077494;28;20396;-75
2021/07/12 03:43:14;;;;;;;0.73;0.73;;;;;;;13.28;79.81;96203.22;5077458;28;20040;-75
2021/07/12 03:45:42;;;;;;;0.70;0.70;;;;;;;13.27;79.81;96195.56;5074956;28;20412;-75
2021/07/12 03:48:09;;;;;;;0.70;0.70;;;;;;;13.25;79.75;96198.47;5075387;28;20044;-75
2021/07/12 03:50:36;;;;;;;1.88;0.70;;;;;;;13.23;79.64;96197.91;5076013;28;20469;-75
2021/07/12 03:53:03;;;;;;;0.90;0.90;;;;;;;13.22;79.65;96198.94;5076386;28;20048;-75
2021/07/12 03:55:31;;;;;;;0.65;0.65;;;;;;;13.20;79.55;96204.41;5077090;28;20036;-74
2021/07/12 03:57:59;;;;;;;1.30;1.20;;;;;;;13.20;79.58;96201.78;5076367;28;20051;-75
2021/07/12 04:00:28;;;;;;;0.65;0.65;;;;;;;13.19;79.68;96202.84;5076662;28;20099;-75
2021/07/12 04:02:54;;;;;;;0.70;0.70;;;;;;;13.19;79.64;96191.53;5076644;28;20035;-75
2021/07/12 04:05:27;;;;;;;1.27;0.90;;;;;;;13.18;79.55;96192.53;5076074;28;20456;-75
2021/07/12 04:07:56;;;;;;;0.70;0.70;;;;;;;13.15;79.70;96177.25;5077017;28;20390;-75
2021/07/12 04:10:23;;;;;;;0.80;0.80;;;;;;;13.15;79.80;96171.97;5076462;28;20029;-75
2021/07/12 04:12:49;;;;;;;2.10;1.00;;;;;;;13.16;79.85;96161.19;5076594;28;20040;-74
2021/07/12 04:15:17;;;;;;;0.80;0.80;;;;;;;13.16;79.70;96158.53;5075876;28;20036;-75
2021/07/12 04:17:44;;;;;;;0.90;0.90;;;;;;;13.17;79.60;96156.72;5076422;28;20036;-74
2021/07/12 04:20:11;;;;;;;0.88;0.88;;;;;;;13.19;79.51;96155.44;5076216;28;20032;-74
2021/07/12 04:22:38;;;;;;;1.15;0.90;;;;;;;13.20;79.63;96150.97;5076291;28;20029;-74
2021/07/12 04:25:05;;;;;;;0.90;0.80;;;;;;;13.23;79.82;96154.94;5076131;28;20037;-75
2021/07/12 04:27:32;;;;;;;0.82;0.82;;;;;;;13.26;79.75;96154.47;5076724;28;20052;-74
2021/07/12 04:29:58;;;;;;;0.98;0.95;;;;;;;13.30;79.76;96159.06;5075368;28;20444;-75
2021/07/12 04:32:24;;;;;;;0.70;0.70;;;;;;;13.37;79.87;96164.16;5075935;28;20099;-74
2021/07/12 04:34:50;;;;;;;0.88;0.88;;;;;;;13.44;80.03;96167.41;5076083;28;20045;-74
2021/07/12 04:37:16;;;;;;;1.02;1.02;;;;;;;13.58;80.16;96167.84;5075984;28;20033;-75
2021/07/12 04:39:42;;;;;;;1.10;1.10;;;;;;;13.74;80.40;96169.66;5074171;28;20051;-75
2021/07/12 04:42:09;;;;;;;1.35;1.00;;;;;;;13.93;80.02;96177.25;5076252;28;20055;-75
2021/07/12 04:44:35;;;;;;;1.48;1.00;;;;;;;14.10;79.68;96179.84;5075828;28;20036;-75
2021/07/12 04:47:01;;;;;;;1.08;1.08;;;;;;;14.26;79.61;96181.59;5076064;28;20409;-75
2021/07/12 04:49:27;;;;;;;0.98;0.98;;;;;;;14.43;79.32;96191.28;5075790;28;20384;-75
2021/07/12 04:51:53;;;;;;;1.90;0.90;;;;;;;14.57;79.08;96189.84;5074646;28;20469;-73
2021/07/12 04:54:20;;;;;;;1.52;1.20;;;;;;;14.84;79.23;96184.53;5074380;28;20040;-73
2021/07/12 04:56:46;;;;;;;1.75;1.48;;;;;;;15.05;78.64;96187.34;5075206;28;20048;-73
2021/07/12 04:59:12;;;;;;;1.40;1.30;;;;;;;15.23;78.20;96193.03;5075138;28;20052;-73
2021/07/12 05:01:41;;;;;;;1.63;1.13;;;;;;;15.51;77.82;96187.69;5074294;28;20035;-74
2021/07/12 05:04:08;;;;;;;1.20;1.05;;;;;;;15.68;76.92;96184.88;5075651;28;20056;-74
2021/07/12 05:06:35;;;;;;;0.82;0.82;;;;;;;15.79;76.42;96181.22;5075498;28;20372;-74
2021/07/12 05:09:03;;;;;;;1.20;0.90;;;;;;;15.93;76.23;96173.63;5075621;28;20342;-74
2021/07/12 05:11:31;;;;;;;0.93;0.93;;;;;;;16.08;75.82;96171.03;5075636;28;20040;-74
2021/07/12 05:13:59;;;;;;;0.80;0.80;;;;;;;16.28;75.30;96161.59;5075530;28;20040;-74
2021/07/12 05:16:25;;;;;;;1.15;1.10;;;;;;;16.51;75.12;96157.69;5073753;28;20048;-74
2021/07/12 05:18:51;;;;;;;0.80;0.80;;;;;;;16.78;74.49;96152.94;5075446;28;20037;-74
2021/07/12 05:21:18;;;;;;;1.33;1.00;;;;;;;17.01;73.59;96153.50;5074443;28;20041;-74
2021/07/12 05:23:44;;;;;;;1.20;1.10;;;;;;;17.17;72.95;96151.63;5075283;28;20457;-74
2021/07/12 05:26:10;;;;;;;1.30;1.08;;;;;;;17.31;72.49;96146.56;5074755;28;20029;-74
2021/07/12 05:28:37;;;;;;;1.27;1.02;;;;;;;17.53;72.05;96147.03;5075560;28;20029;-74
2021/07/12 05:31:05;;;;;;;1.00;0.90;;;;;;;17.80;71.72;96144.03;5074699;28;20028;-74
2021/07/12 05:33:31;;;;;;;0.82;0.82;;;;;;;18.10;71.06;96152.16;5074554;28;20048;-75
2021/07/12 05:35:57;;;;;;;0.90;0.90;;;;;;;18.24;69.91;96145.97;5074930;28;20028;-75
2021/07/12 05:38:24;;;;;;;0.93;0.93;;;;;;;18.25;69.19;96147.59;5074999;28;20480;-75
2021/07/12 05:40:50;;;;;;;0.98;0.80;;;;;;;18.39;69.43;96144.31;5074088;28;20040;-74
2021/07/12 05:43:16;;;;;;;0.88;0.88;;;;;;;18.59;68.82;96146.84;5074930;28;20044;-74
2021/07/12 05:45:42;;;;;;;1.35;0.90;;;;;;;18.79;68.14;96150.44;5075014;28;20044;-74
2021/07/12 05:48:09;;;;;;;1.05;1.05;;;;;;;18.98;67.82;96156.69;5074094;28;20053;-75
2021/07/12 05:50:36;;;;;;;1.38;0.95;;;;;;;18.99;66.90;96152.16;5074505;28;20043;-75
2021/07/12 05:53:04;;;;;;;2.90;1.02;;;;;;;18.85;66.39;96146.69;5074692;28;20047;-76
2021/07/12 05:55:30;;;;;;;1.17;1.00;;;;;;;18.61;66.28;96146.56;5062320;28;20028;-75
2021/07/12 05:57:56;;;;;;;0.82;0.82;;;;;;;18.54;66.19;96146.06;5074330;28;20028;-75
2021/07/12 06:00:23;;;;;;;0.80;0.80;;;;;;;18.46;66.69;96144.81;5074160;28;20388;-75
2021/07/12 06:02:49;;;;;;;1.98;1.20;;;;;;;18.58;67.01;96149.78;5074281;28;20483;-74
2021/07/12 06:05:15;;;;;;;1.50;1.20;;;;;;;18.73;66.68;96154.19;5074646;28;20037;-74
2021/07/12 06:07:42;;;;;;;1.00;0.98;;;;;;;18.78;66.30;96149.66;5074253;28;20029;-74
2021/07/12 06:10:09;;;;;;;1.20;1.10;;;;;;;18.85;66.47;96146.69;5074542;28;20476;-74
2021/07/12 06:12:35;;;;;;;1.00;1.00;;;;;;;19.05;66.18;96138.53;5074164;28;20039;-74
2021/07/12 06:15:02;;;;;;;1.35;1.02;;;;;;;19.18;65.37;96134.44;5074142;28;20048;-74
2021/07/12 06:17:28;;;;;;;1.35;1.10;;;;;;;19.11;65.10;96131.34;5073277;28;20063;-74
2021/07/12 06:19:54;;;;;;;1.63;1.02;;;;;;;19.12;65.04;96126.81;5073621;28;20044;-74
2021/07/12 06:22:20;;;;;;;1.00;1.00;;;;;;;18.97;64.71;96125.84;5074325;28;20465;-74
2021/07/12 06:24:46;;;;;;;1.20;1.10;;;;;;;18.86;64.96;96127.81;5073498;28;20044;-74
2021/07/12 06:27:13;;;;;;;1.08;1.08;;;;;;;18.89;65.59;96128.34;5074255;28;20032;-74
2021/07/12 06:29:39;;;;;;;1.27;1.27;;;;;;;19.01;65.70;96126.09;5072984;28;20048;-74
2021/07/12 06:32:06;;;;;;;1.35;0.98;;;;;;;19.17;65.56;96119.59;5073986;28;20033;-74
2021/07/12 06:34:32;;;;;;;1.23;1.20;;;;;;;19.27;65.37;96111.47;5072970;28;20048;-74
2021/07/12 06:36:58;;;;;;;1.02;0.93;;;;;;;19.47;65.73;96110.50;5073945;28;20032;-74
2021/07/12 06:39:24;;;;;;;1.52;1.10;;;;;;;19.62;65.07;96100.75;5071730;28;20492;-74
2021/07/12 06:41:50;;;;;;;1.13;1.13;;;;;;;19.63;64.79;96097.00;5074044;28;20036;-74
2021/07/12 06:44:16;;;;;;;1.35;1.02;;;;;;;19.63;64.69;96100.47;5073525;28;20044;-74
2021/07/12 06:46:42;;;;;;;1.33;1.23;;;;;;;19.62;64.57;96093.56;5071908;28;20056;-74
2021/07/12 06:49:09;;;;;;;1.10;1.00;;;;;;;19.66;64.64;96080.50;5073536;28;20476;-75
2021/07/12 06:51:35;;;;;;;0.98;0.98;;;;;;;19.57;64.35;96080.34;5073345;28;20045;-74
2021/07/12 06:54:01;;;;;;;0.85;0.80;;;;;;;19.60;64.49;96076.31;5072694;28;20044;-74
2021/07/12 06:56:27;;;;;;;0.80;0.80;;;;;;;19.64;64.17;96085.31;5073601;28;20047;-74
2021/07/12 06:58:53;;;;;;;1.67;0.98;;;;;;;19.58;64.06;96081.91;5073756;28;20039;-74
2021/07/12 07:01:20;;;;;;;1.08;1.00;;;;;;;19.77;64.53;96068.66;5073255;28;20032;-74
2021/07/12 07:03:46;;;;;;;0.70;0.70;;;;;;;20.07;64.51;96064.00;5073833;28;20040;-74
2021/07/12 07:06:12;;;;;;;0.95;0.70;;;;;;;20.43;63.88;96053.63;5073599;28;20043;-74
2021/07/12 07:08:38;;;;;;;0.98;0.73;;;;;;;20.63;63.11;96041.88;5073268;28;20322;-74
2021/07/12 07:11:04;;;;;;;0.82;0.80;;;;;;;20.78;62.65;96030.16;5073262;28;20040;-75
2021/07/12 07:13:32;;;;;;;0.80;0.80;;;;;;;20.97;62.43;96035.44;5062581;28;20036;-74
2021/07/12 07:15:58;;;;;;;0.70;0.65;;;;;;;21.22;61.80;96025.38;5072924;28;20388;-75
2021/07/12 07:18:24;;;;;;;0.70;0.65;;;;;;;21.53;61.35;96011.47;5073334;28;20469;-74
2021/07/12 07:20:51;;;;;;;0.50;0.50;;;;;;;21.76;60.68;96005.09;5073160;28;20036;-74
2021/07/12 07:23:17;;;;;;;0.50;0.50;;;;;;;21.88;60.42;95989.34;5072184;28;20044;-75
2021/07/12 07:25:43;;;;;;;0.68;0.68;;;;;;;22.01;60.17;95985.06;5073138;28;20032;-75
2021/07/12 07:28:10;;;;;;;0.50;0.50;;;;;;;22.14;60.20;95977.31;5073186;28;20043;-75
2021/07/12 07:30:39;;;;;;;0.73;0.50;;;;;;;22.25;59.85;95971.44;5072908;28;20044;-75
2021/07/12 07:33:05;;;;;;;0.90;0.80;;;;;;;22.43;59.73;95974.22;5073388;28;20043;-75
2021/07/12 07:35:31;;;;;;;0.70;0.70;;;;;;;22.59;59.47;95971.94;5072992;28;20032;-75
2021/07/12 07:37:57;;;;;;;0.65;0.60;;;;;;;22.75;59.22;95959.75;5072400;28;20036;-75
2021/07/12 07:40:24;;;;;;;0.57;0.57;;;;;;;22.93;58.88;95959.81;5072390;28;20041;-75
2021/07/12 07:42:50;;;;;;;1.50;0.50;;;;;;;22.96;58.04;95953.88;5073362;28;20056;-75
2021/07/12 07:45:17;;;;;;;0.32;0.32;;;;;;;23.09;57.76;95940.41;5072271;28;20060;-75
2021/07/12 07:47:45;;;;;;;0.40;0.40;;;;;;;23.15;56.75;95926.91;5072894;28;20041;-75
2021/07/12 07:50:13;;;;;;;1.15;0.57;;;;;;;23.36;56.33;95919.06;5072981;28;20040;-75
2021/07/12 07:52:39;;;;;;;1.55;0.40;;;;;;;23.55;56.12;95919.56;5072903;28;20035;-76
2021/07/12 07:55:08;;;;;;;0.88;0.30;;;;;;;23.67;55.33;95909.00;5072952;28;20044;-74
2021/07/12 07:57:36;;;;;;;0.60;0.60;;;;;;;23.84;55.32;95910.16;5072813;28;20461;-75
2021/07/12 08:00:08;;;;;;;0.30;0.30;;;;;;;23.90;53.96;95898.19;5072155;28;20045;-74
2021/07/12 08:02:34;;;;;;;0.50;0.50;;;;;;;23.95;54.12;95898.00;5072784;28;20028;-74
2021/07/12 08:05:00;;;;;;;0.32;0.32;;;;;;;23.77;53.38;95889.22;5072884;28;20047;-75
2021/07/12 08:07:26;;;;;;;0.30;0.30;;;;;;;23.81;53.40;95897.38;5072649;28;20062;-75
2021/07/12 08:09:52;;;;;;;0.40;0.40;;;;;;;23.82;53.53;95889.03;5071137;28;20040;-75
2021/07/12 08:12:19;;;;;;;0.47;0.47;;;;;;;23.87;53.21;95890.75;5072660;28;20032;-75
2021/07/12 08:14:45;;;;;;;0.60;0.50;;;;;;;23.82;52.97;95889.03;5071815;28;20049;-75
2021/07/12 08:17:11;;;;;;;0.52;0.38;;;;;;;23.76;52.66;95887.63;5072828;28;20044;-75
2021/07/12 08:19:37;;;;;;;0.57;0.40;;;;;;;23.62;52.42;95870.91;5071385;28;20029;-74
2021/07/12 08:22:04;;;;;;;0.30;0.30;;;;;;;23.60;52.14;95873.91;5073666;28;20037;-74
2021/07/12 08:24:30;;;;;;;0.45;0.40;;;;;;;23.60;52.20;95868.56;5076332;28;20404;-74
2021/07/12 08:26:59;;;;;;;0.45;0.30;;;;;;;23.59;51.83;95858.16;5075680;28;20440;-75
2021/07/12 08:29:25;;;;;;;0.30;0.30;;;;;;;23.83;52.03;95853.13;5075475;28;20060;-74
2021/07/12 08:31:51;;;;;;;0.32;0.32;;;;;;;24.02;51.34;95855.47;5074899;28;20033;-75
2021/07/12 08:34:17;;;;;;;0.68;0.40;;;;;;;24.06;50.80;95850.22;5074486;28;20437;-74
2021/07/12 08:36:43;;;;;;;0.25;0.25;;;;;;;24.11;50.50;95858.91;5075358;28;20048;-74
2021/07/12 08:39:10;;;;;;;0.40;0.40;;;;;;;24.18;50.69;95868.34;5076047;28;20037;-75
2021/07/12 08:41:37;;;;;;;0.30;0.30;;;;;;;24.28;50.31;95865.31;5076039;28;20040;-74
2021/07/12 08:44:04;;;;;;;0.30;0.30;;;;;;;24.30;50.35;95863.09;5075751;28;20468;-74
2021/07/12 08:46:30;;;;;;;0.52;0.40;;;;;;;24.45;50.18;95869.84;5075774;28;20392;-75
2021/07/12 08:48:57;;;;;;;0.40;0.40;;;;;;;24.51;49.97;95863.22;5075226;28;20059;-76
2021/07/12 08:51:24;;;;;;;0.30;0.30;;;;;;;24.59;49.69;95873.13;5075818;28;20047;-75
2021/07/12 08:53:50;;;;;;;0.68;0.50;;;;;;;24.56;49.40;95863.03;5074937;28;20059;-75
2021/07/12 08:56:16;;;;;;;0.50;0.50;;;;;;;24.62;49.43;95866.31;5075800;28;20480;-75
2021/07/12 08:58:42;;;;;;;0.40;0.40;;;;;;;24.67;49.54;95858.91;5075462;28;20048;-75
2021/07/12 09:01:09;;;;;;;0.63;0.50;;;;;;;24.58;49.11;95866.16;5075059;28;20056;-75
2021/07/12 09:03:41;;;;;;;0.32;0.32;;;;;;;24.49;48.67;95865.44;5076019;28;20037;-75
2021/07/12 09:06:09;;;;;;;0.40;0.40;;;;;;;24.52;49.13;95878.19;5076410;28;20040;-75
2021/07/12 09:08:38;;;;;;;0.73;0.30;;;;;;;24.63;48.80;95883.97;5075529;28;20024;-75
2021/07/12 09:11:28;;;;;;;0.30;0.30;;;;;;;24.73;48.71;95877.47;5075743;28;20392;-75
2021/07/12 09:14:03;;;;;;;0.40;0.40;;;;;;;24.65;48.09;95881.75;5058475;28;20060;-75
2021/07/12 09:16:51;;;;;;;0.32;0.32;;;;;;;24.59;47.67;95870.44;5075452;28;20045;-74
2021/07/12 09:19:23;;;;;;;0.30;0.30;;;;;;;24.66;48.30;95884.13;5064142;28;20373;-74
2021/07/12 09:21:54;;;;;;;1.23;0.40;;;;;;;24.63;48.38;95870.56;5075371;28;20032;-76
2021/07/12 09:24:26;;;;;;;1.85;0.40;;;;;;;24.57;48.28;95864.63;5074526;28;20036;-75
2021/07/12 09:26:58;;;;;;;0.30;0.30;;;;;;;24.55;49.36;95872.19;5074853;28;20025;-75
2021/07/12 09:29:36;;;;;;;0.80;0.38;;;;;;;24.64;49.87;95878.28;5075528;28;20465;-75
2021/07/12 09:32:05;;;;;;;0.30;0.30;;;;;;;24.79;48.33;95871.59;5075187;28;20465;-74
2021/07/12 09:34:32;;;;;;;0.20;0.20;;;;;;;24.75;48.05;95869.88;5073998;28;20041;-75
2021/07/12 09:36:58;;;;;;;0.35;0.30;;;;;;;24.87;48.49;95875.34;5074624;28;20032;-75
2021/07/12 09:39:36;;;;;;;0.25;0.25;;;;;;;25.03;48.23;95856.78;5074922;28;20029;-74
2021/07/12 09:42:18;;;;;;;0.40;0.40;;;;;;;25.14;48.28;95859.91;5075146;28;20392;-75
2021/07/12 09:44:46;;;;;;;0.73;0.45;;;;;;;25.21;48.28;95854.81;5074407;28;20040;-74
2021/07/12 09:47:19;;;;;;;0.77;0.40;;;;;;;25.25;47.24;95839.63;5075052;28;20056;-74
2021/07/12 09:49:46;;;;;;;0.30;0.30;;;;;;;25.21;48.03;95838.72;5075475;28;20036;-74
2021/07/12 09:52:16;;;;;;;0.90;0.38;;;;;;;25.25;47.72;95848.47;5075040;28;20040;-74
2021/07/12 09:54:45;;;;;;;0.38;0.38;;;;;;;25.17;47.54;95843.13;5074686;28;20024;-74
2021/07/12 09:57:20;;;;;;;0.82;0.50;;;;;;;25.04;47.39;95840.38;5073882;28;20055;-75
2021/07/12 09:59:54;;;;;;;;;;;;;;;24.97;47.70;95855.41;5075472;28;20047;-74
2021/07/12 10:02:23;;;;;;;0.40;0.40;;;;;;;24.96;48.09;95857.31;5074319;28;19916;-74
2021/07/12 10:04:55;;;;;;;0.30;0.30;;;;;;;24.99;48.07;95856.66;5074671;28;20040;-75
2021/07/12 10:07:22;;;;;;;0.80;0.60;;;;;;;25.08;48.73;95856.59;5074884;28;20044;-74
2021/07/12 10:09:49;;;;;;;0.35;0.35;;;;;;;25.08;48.55;95849.34;5072892;28;20032;-74
2021/07/12 10:12:15;;;;;;;0.40;0.40;;;;;;;25.06;48.42;95848.88;5074209;28;20033;-74
2021/07/12 10:14:41;;;;;;;0.47;0.47;;;;;;;25.02;48.32;95858.69;5074068;28;20032;-75
2021/07/12 10:17:09;;;;;;;0.50;0.50;;;;;;;24.97;48.62;95850.84;5074232;28;20049;-74
2021/07/12 10:19:37;;;;;;;0.50;0.30;;;;;;;25.07;48.38;95857.72;5074229;28;20040;-74
2021/07/12 10:22:04;;;;;;;0.40;0.40;;;;;;;25.14;48.30;95855.31;5073271;28;20396;-75
2021/07/12 10:24:43;;;;;;;0.40;0.40;;;;;;;25.03;47.67;95854.91;5074152;28;20398;-74
2021/07/12 10:27:27;;;;;;;0.40;0.40;;;;;;;24.94;47.38;95845.34;5073992;28;20020;-74
2021/07/12 10:29:55;;;;;;;0.22;0.22;;;;;;;24.91;48.53;95869.00;5073740;28;20045;-74
2021/07/12 10:32:25;;;;;;;0.32;0.30;;;;;;;24.88;48.76;95879.59;5074044;28;20029;-74
2021/07/12 10:34:54;;;;;;;1.00;0.40;;;;;;;24.78;48.94;95871.91;5074238;28;20040;-74
2021/07/12 10:37:21;;;;;;;0.50;0.30;;;;;;;24.79;49.11;95874.28;5073698;28;20032;-74
2021/07/12 10:39:57;;;;;;;0.60;0.40;;;;;;;24.73;49.32;95870.19;5073861;28;20055;-75
2021/07/12 10:42:41;;;;;;;0.63;0.40;;;;;;;24.74;48.12;95863.75;5072889;28;20044;-74
2021/07/12 10:45:15;;;;;;;0.30;0.30;;;;;;;24.78;48.99;95866.53;5058663;28;20456;-74
2021/07/12 10:47:51;;;;;;;0.57;0.50;;;;;;;24.74;49.29;95863.75;5073031;28;20052;-75
2021/07/12 10:50:38;;;;;;;0.40;0.40;;;;;;;24.81;50.08;95874.75;5073542;28;20028;-74
2021/07/12 10:53:16;;;;;;;0.90;0.50;;;;;;;24.91;47.93;95852.91;5073616;28;20044;-74
2021/07/12 10:55:45;;;;;;;0.30;0.30;;;;;;;24.94;48.59;95854.16;5073479;28;20559;-74
2021/07/12 10:58:29;;;;;;;0.30;0.30;;;;;;;25.09;48.58;95869.72;5073469;28;20040;-74
2021/07/12 11:01:01;;;;;;;1.20;0.45;;;;;;;25.27;49.03;95883.81;5061595;28;20052;-74
2021/07/12 11:03:50;;;;;;;0.75;0.40;;;;;;;25.44;47.69;95887.50;5073528;28;20036;-75
2021/07/12 11:06:27;;;;;;;0.28;0.28;;;;;;;25.51;43.72;95869.75;5072900;28;20045;-75
2021/07/12 11:08:55;;;;;;;0.50;0.50;;;;;;;25.60;46.88;95882.31;5072314;28;20035;-75
2021/07/12 11:11:23;;;;;;;0.30;0.30;;;;;;;25.62;46.69;95872.00;5055391;28;20048;-74
2021/07/12 11:13:59;;;;;;;0.30;0.30;;;;;;;25.58;45.19;95865.75;5073544;28;20036;-75
2021/07/12 11:16:41;;;;;;;0.32;0.32;;;;;;;25.60;44.98;95861.63;5073444;28;20033;-75
2021/07/12 11:19:27;;;;;;;0.30;0.30;;;;;;;25.87;44.43;95856.78;5073041;28;20048;-74
2021/07/12 11:22:14;;;;;;;0.15;0.15;;;;;;;26.02;44.60;95853.53;5072776;28;20382;-75
2021/07/12 11:25:11;;;;;;;0.30;0.30;;;;;;;26.13;45.25;95857.34;5065269;28;20055;-75
2021/07/12 11:27:39;;;;;;;0.55;0.55;;;;;;;26.25;45.26;95853.13;5073201;28;20441;-75
2021/07/12 11:30:37;;;;;;;0.38;0.38;;;;;;;26.31;45.22;95841.81;5064584;28;20047;-74
2021/07/12 11:33:04;;;;;;;0.30;0.30;;;;;;;26.39;45.24;95839.34;5053327;28;20489;-74
2021/07/12 11:35:30;;;;;;;1.15;0.40;;;;;;;26.39;45.16;95842.81;5073338;28;20040;-74
2021/07/12 11:38:06;;;;;;;1.17;0.40;;;;;;;26.43;44.05;95830.28;5072578;28;20047;-74
2021/07/12 11:40:32;;;;;;;0.40;0.40;;;;;;;26.51;44.82;95837.47;5073182;28;20041;-74
2021/07/12 11:42:59;;;;;;;0.40;0.35;;;;;;;26.78;45.08;95827.19;5072872;28;20453;-74
2021/07/12 11:45:25;;;;;;;0.30;0.30;;;;;;;26.86;44.93;95818.22;5072637;28;20063;-75